createdAt,value
2018-01-15T00:00:10.240Z,0
2018-01-15T00:01:11.647Z,0
2018-01-15T00:02:13.055Z,0
2018-01-15T00:03:14.468Z,0
2018-01-15T00:04:15.891Z,0
2018-01-15T00:05:17.295Z,0
2018-01-15T00:06:18.711Z,0
2018-01-15T00:07:20.127Z,0
2018-01-15T00:08:21.538Z,0
2018-01-15T00:09:22.960Z,0
2018-01-15T00:10:24.459Z,0
2018-01-15T00:11:25.866Z,0
2018-01-15T00:12:27.272Z,0
2018-01-15T00:13:28.694Z,0
2018-01-15T00:14:30.109Z,0
2018-01-15T00:15:31.539Z,0
2018-01-15T00:16:32.952Z,0
2018-01-15T00:17:34.353Z,0
2018-01-15T00:18:35.776Z,0
2018-01-15T00:19:37.195Z,0
2018-01-15T00:20:38.607Z,0
2018-01-15T00:21:40.032Z,0
2018-01-15T00:22:41.438Z,0
2018-01-15T00:23:42.861Z,0
2018-01-15T00:24:44.269Z,0
2018-01-15T00:25:45.686Z,0
2018-01-15T00:26:47.100Z,0
2018-01-15T00:27:48.513Z,0
2018-01-15T00:28:49.927Z,0
2018-01-15T00:29:51.337Z,0
2018-01-15T00:30:52.748Z,0
2018-01-15T00:31:54.155Z,0
2018-01-15T00:32:55.579Z,0
2018-01-15T00:33:56.988Z,0
2018-01-15T00:34:58.395Z,0
2018-01-15T00:35:59.814Z,0
2018-01-15T00:37:01.224Z,0
2018-01-15T00:38:02.630Z,0
2018-01-15T00:39:04.045Z,0
2018-01-15T00:40:05.461Z,0
2018-01-15T00:41:06.870Z,0
2018-01-15T00:42:08.279Z,0
2018-01-15T00:43:09.691Z,0
2018-01-15T00:44:11.104Z,0
2018-01-15T00:45:12.516Z,0
2018-01-15T00:46:13.914Z,0
2018-01-15T00:47:15.321Z,0
2018-01-15T00:48:16.732Z,0
2018-01-15T00:49:18.147Z,0
2018-01-15T00:50:19.558Z,0
2018-01-15T00:51:20.967Z,0
2018-01-15T00:52:22.377Z,0
2018-01-15T00:53:23.797Z,0
2018-01-15T00:54:25.215Z,0
2018-01-15T00:55:26.616Z,0
2018-01-15T00:56:28.028Z,0
2018-01-15T00:57:29.438Z,0
2018-01-15T00:58:30.859Z,0
2018-01-15T00:59:32.266Z,0
2018-01-15T01:00:33.686Z,0
2018-01-15T01:01:35.097Z,0
2018-01-15T01:02:36.514Z,0
2018-01-15T01:03:37.930Z,0
2018-01-15T01:04:39.337Z,0
2018-01-15T01:05:40.746Z,0
2018-01-15T01:06:42.157Z,0
2018-01-15T01:07:43.569Z,0
2018-01-15T01:08:44.976Z,0
2018-01-15T01:09:47.386Z,0
2018-01-15T01:10:48.795Z,0
2018-01-15T01:11:50.199Z,0
2018-01-15T01:12:51.606Z,0
2018-01-15T01:13:53.027Z,0
2018-01-15T01:14:54.437Z,0
2018-01-15T01:15:55.903Z,0
2018-01-15T01:16:57.306Z,0
2018-01-15T01:17:58.718Z,0
2018-01-15T01:19:00.143Z,0
2018-01-15T01:20:01.564Z,0
2018-01-15T01:21:02.983Z,0
2018-01-15T01:22:04.386Z,0
2018-01-15T01:23:05.817Z,0
2018-01-15T01:24:07.224Z,0
2018-01-15T01:25:08.631Z,0
2018-01-15T01:26:10.052Z,0
2018-01-15T01:27:11.461Z,0
2018-01-15T01:28:12.877Z,0
2018-01-15T01:29:14.292Z,0
2018-01-15T01:30:15.752Z,0
2018-01-15T01:31:17.164Z,0
2018-01-15T01:32:19.179Z,0
2018-01-15T01:33:20.579Z,0
2018-01-15T01:34:21.992Z,0
2018-01-15T01:35:23.405Z,0
2018-01-15T01:36:24.817Z,0
2018-01-15T01:37:26.215Z,0
2018-01-15T01:38:27.640Z,0
2018-01-15T01:39:29.054Z,0
2018-01-15T01:40:30.469Z,0
2018-01-15T01:41:31.878Z,0
2018-01-15T01:42:33.290Z,0
2018-01-15T01:43:34.699Z,0
2018-01-15T01:44:36.100Z,0
2018-01-15T01:45:37.508Z,0
2018-01-15T01:46:38.924Z,0
2018-01-15T01:47:40.345Z,0
2018-01-15T01:48:41.756Z,0
2018-01-15T01:49:43.179Z,0
2018-01-15T01:50:44.586Z,0
2018-01-15T01:51:46.005Z,0
2018-01-15T01:52:47.420Z,0
2018-01-15T01:53:48.826Z,0
2018-01-15T01:54:50.268Z,0
2018-01-15T01:55:51.677Z,0
2018-01-15T01:56:53.101Z,0
2018-01-15T01:57:54.510Z,0
2018-01-15T01:58:55.915Z,0
2018-01-15T01:59:57.318Z,0
2018-01-15T02:00:58.722Z,0
2018-01-15T02:02:00.143Z,0
2018-01-15T02:03:01.551Z,0
2018-01-15T02:04:02.960Z,0
2018-01-15T02:05:04.369Z,0
2018-01-15T02:06:05.781Z,0
2018-01-15T02:07:07.190Z,0
2018-01-15T02:08:08.600Z,0
2018-01-15T02:09:10.017Z,0
2018-01-15T02:10:11.432Z,0
2018-01-15T02:11:12.834Z,0
2018-01-15T02:12:14.243Z,0
2018-01-15T02:13:15.661Z,0
2018-01-15T02:14:17.083Z,0
2018-01-15T02:15:18.494Z,0
2018-01-15T02:16:19.906Z,0
2018-01-15T02:17:21.319Z,0
2018-01-15T02:18:22.733Z,0
2018-01-15T02:19:24.159Z,0
2018-01-15T02:20:25.578Z,0
2018-01-15T02:21:26.991Z,0
2018-01-15T02:22:28.418Z,0
2018-01-15T02:23:29.829Z,0
2018-01-15T02:24:31.243Z,0
2018-01-15T02:25:32.657Z,0
2018-01-15T02:26:34.080Z,0
2018-01-15T02:27:35.491Z,0
2018-01-15T02:28:36.903Z,0
2018-01-15T02:29:38.310Z,0
2018-01-15T02:30:39.730Z,0
2018-01-15T02:31:41.134Z,0
2018-01-15T02:32:42.543Z,0
2018-01-15T02:33:44.017Z,0
2018-01-15T02:34:45.429Z,0
2018-01-15T02:35:46.839Z,0
2018-01-15T02:36:48.248Z,0
2018-01-15T02:37:49.664Z,0
2018-01-15T02:38:51.070Z,0
2018-01-15T02:39:52.479Z,0
2018-01-15T02:40:53.893Z,0
2018-01-15T02:41:55.289Z,0
2018-01-15T02:42:56.718Z,0
2018-01-15T02:43:58.128Z,0
2018-01-15T02:44:59.531Z,0
2018-01-15T02:46:00.936Z,0
2018-01-15T02:47:03.172Z,0
2018-01-15T02:48:04.575Z,0
2018-01-15T02:49:05.987Z,0
2018-01-15T02:50:07.397Z,0
2018-01-15T02:51:08.810Z,0
2018-01-15T02:52:10.226Z,0
2018-01-15T02:53:11.628Z,0
2018-01-15T02:54:13.034Z,0
2018-01-15T02:55:14.447Z,0
2018-01-15T02:56:15.862Z,0
2018-01-15T02:57:17.271Z,0
2018-01-15T02:58:18.678Z,0
2018-01-15T02:59:20.086Z,0
2018-01-15T03:00:21.563Z,0
2018-01-15T03:01:22.977Z,0
2018-01-15T03:02:24.393Z,0
2018-01-15T03:03:25.791Z,0
2018-01-15T03:04:27.208Z,0
2018-01-15T03:05:28.619Z,0
2018-01-15T03:06:30.024Z,0
2018-01-15T03:07:31.444Z,0
2018-01-15T03:08:32.860Z,0
2018-01-15T03:09:34.280Z,0
2018-01-15T03:10:35.690Z,0
2018-01-15T03:11:37.098Z,0
2018-01-15T03:12:38.512Z,0
2018-01-15T03:13:39.913Z,0
2018-01-15T03:14:41.326Z,0
2018-01-15T03:15:42.732Z,0
2018-01-15T03:16:44.140Z,0
2018-01-15T03:17:45.551Z,0
2018-01-15T03:18:46.956Z,0
2018-01-15T03:19:48.382Z,0
2018-01-15T03:20:49.801Z,0
2018-01-15T03:21:51.216Z,0
2018-01-15T03:22:52.634Z,0
2018-01-15T03:23:54.046Z,0
2018-01-15T03:24:55.455Z,0
2018-01-15T03:25:56.881Z,0
2018-01-15T03:26:58.297Z,0
2018-01-15T03:27:59.708Z,0
2018-01-15T03:29:01.123Z,0
2018-01-15T03:30:02.532Z,0
2018-01-15T03:31:03.942Z,0
2018-01-15T03:32:05.347Z,0
2018-01-15T03:33:06.759Z,0
2018-01-15T03:34:08.163Z,0
2018-01-15T03:35:09.579Z,0
2018-01-15T03:36:10.996Z,0
2018-01-15T03:37:12.403Z,0
2018-01-15T03:38:13.807Z,0
2018-01-15T03:39:15.216Z,0
2018-01-15T03:40:16.627Z,0
2018-01-15T03:41:18.040Z,0
2018-01-15T03:42:19.450Z,0
2018-01-15T03:43:20.856Z,0
2018-01-15T03:44:22.272Z,0
2018-01-15T03:45:23.697Z,0
2018-01-15T03:46:25.108Z,0
2018-01-15T03:47:26.519Z,0
2018-01-15T03:48:27.933Z,0
2018-01-15T03:49:29.349Z,0
2018-01-15T03:50:30.758Z,0
2018-01-15T03:51:32.170Z,0
2018-01-15T03:52:33.579Z,0
2018-01-15T03:53:34.990Z,0
2018-01-15T03:54:36.402Z,0
2018-01-15T03:55:37.809Z,0
2018-01-15T03:56:39.218Z,0
2018-01-15T03:57:40.633Z,0
2018-01-15T03:58:42.046Z,0
2018-01-15T03:59:43.455Z,0
2018-01-15T04:00:44.861Z,0
2018-01-15T04:01:46.266Z,0
2018-01-15T04:02:47.680Z,0
2018-01-15T04:03:49.089Z,0
2018-01-15T04:04:50.498Z,0
2018-01-15T04:05:51.915Z,0
2018-01-15T04:06:53.321Z,0
2018-01-15T04:07:54.740Z,0
2018-01-15T04:08:56.146Z,0
2018-01-15T04:09:57.559Z,0
2018-01-15T04:10:58.982Z,0
2018-01-15T04:12:00.400Z,0
2018-01-15T04:13:01.815Z,0
2018-01-15T04:14:03.220Z,0
2018-01-15T04:15:04.634Z,0
2018-01-15T04:16:06.058Z,0
2018-01-15T04:17:07.484Z,0
2018-01-15T04:18:08.887Z,0
2018-01-15T04:19:10.300Z,0
2018-01-15T04:20:11.707Z,0
2018-01-15T04:21:13.127Z,0
2018-01-15T04:22:14.526Z,0
2018-01-15T04:23:15.943Z,0
2018-01-15T04:24:17.359Z,0
2018-01-15T04:25:18.785Z,0
2018-01-15T04:26:20.187Z,0
2018-01-15T04:27:21.600Z,0
2018-01-15T04:28:23.014Z,0
2018-01-15T04:29:24.430Z,0
2018-01-15T04:30:25.830Z,0
2018-01-15T04:31:27.237Z,0
2018-01-15T04:32:28.665Z,0
2018-01-15T04:33:30.079Z,0
2018-01-15T04:34:31.489Z,0
2018-01-15T04:35:32.900Z,0
2018-01-15T04:36:34.315Z,0
2018-01-15T04:37:35.730Z,0
2018-01-15T04:38:37.146Z,0
2018-01-15T04:39:38.560Z,0
2018-01-15T04:40:39.968Z,0
2018-01-15T04:41:41.388Z,0
2018-01-15T04:42:42.798Z,0
2018-01-15T04:43:44.207Z,0
2018-01-15T04:44:45.621Z,0
2018-01-15T04:45:47.036Z,0
2018-01-15T04:46:48.541Z,0
2018-01-15T04:47:49.954Z,0
2018-01-15T04:48:51.379Z,0
2018-01-15T04:49:52.787Z,0
2018-01-15T04:50:54.206Z,0
2018-01-15T04:51:55.612Z,0
2018-01-15T04:52:58.012Z,0
2018-01-15T04:53:59.429Z,0
2018-01-15T04:55:00.840Z,0
2018-01-15T04:56:02.269Z,0
2018-01-15T04:57:03.695Z,0
2018-01-15T04:58:05.105Z,0
2018-01-15T04:59:06.528Z,0
2018-01-15T05:00:07.935Z,0
2018-01-15T05:01:09.341Z,0
2018-01-15T05:02:10.758Z,0
2018-01-15T05:03:12.172Z,0
2018-01-15T05:04:13.591Z,0
2018-01-15T05:05:15.004Z,0
2018-01-15T05:06:16.424Z,0
2018-01-15T05:07:17.839Z,0
2018-01-15T05:08:19.255Z,0
2018-01-15T05:09:20.670Z,0
2018-01-15T05:10:22.081Z,0
2018-01-15T05:11:23.489Z,0
2018-01-15T05:12:24.902Z,0
2018-01-15T05:13:26.322Z,0
2018-01-15T05:14:27.880Z,0
2018-01-15T05:15:29.281Z,0
2018-01-15T05:16:30.693Z,0
2018-01-15T05:17:32.102Z,0
2018-01-15T05:18:33.514Z,0
2018-01-15T05:19:34.932Z,0
2018-01-15T05:20:36.354Z,0
2018-01-15T05:21:37.766Z,0
2018-01-15T05:22:39.176Z,0
2018-01-15T05:23:40.592Z,0
2018-01-15T05:24:42.007Z,0
2018-01-15T05:25:43.421Z,0
2018-01-15T05:26:44.833Z,0
2018-01-15T05:27:46.248Z,0
2018-01-15T05:28:47.714Z,0
2018-01-15T05:29:49.072Z,0
2018-01-15T05:30:50.485Z,0
2018-01-15T05:31:51.898Z,0
2018-01-15T05:32:53.304Z,0
2018-01-15T05:33:54.718Z,0
2018-01-15T05:34:56.135Z,0
2018-01-15T05:35:57.546Z,0
2018-01-15T05:36:58.958Z,0
2018-01-15T05:38:00.370Z,0
2018-01-15T05:39:01.787Z,0
2018-01-15T05:40:03.212Z,0
2018-01-15T05:41:04.624Z,0
2018-01-15T05:42:06.033Z,0
2018-01-15T05:43:07.441Z,0
2018-01-15T05:44:08.850Z,0
2018-01-15T05:45:10.264Z,0
2018-01-15T05:46:11.667Z,0
2018-01-15T05:47:13.077Z,0
2018-01-15T05:48:14.486Z,0
2018-01-15T05:49:16.047Z,0
2018-01-15T05:50:17.455Z,0
2018-01-15T05:51:18.862Z,0
2018-01-15T05:52:20.277Z,0
2018-01-15T05:53:21.685Z,0
2018-01-15T05:54:23.099Z,0
2018-01-15T05:55:24.519Z,0
2018-01-15T05:56:25.956Z,0
2018-01-15T05:57:27.368Z,0
2018-01-15T05:58:28.779Z,0
2018-01-15T05:59:30.190Z,0
2018-01-15T06:00:31.611Z,0
2018-01-15T06:01:33.023Z,0
2018-01-15T06:02:34.425Z,0
2018-01-15T06:03:35.836Z,0
2018-01-15T06:04:37.243Z,0
2018-01-15T06:05:38.661Z,0
2018-01-15T06:06:40.079Z,0
2018-01-15T06:07:41.492Z,0
2018-01-15T06:08:42.903Z,0
2018-01-15T06:09:44.329Z,0
2018-01-15T06:10:45.748Z,0
2018-01-15T06:11:47.159Z,0
2018-01-15T06:12:49.049Z,0
2018-01-15T06:13:51.054Z,0
2018-01-15T06:14:52.469Z,0
2018-01-15T06:15:53.878Z,0
2018-01-15T06:16:55.298Z,0
2018-01-15T06:17:56.715Z,0
2018-01-15T06:18:58.216Z,0
2018-01-15T06:19:59.641Z,0
2018-01-15T06:21:01.073Z,0
2018-01-15T06:22:02.487Z,0
2018-01-15T06:23:03.896Z,0
2018-01-15T06:24:05.311Z,0
2018-01-15T06:25:06.719Z,0
2018-01-15T06:26:08.272Z,0
2018-01-15T06:27:09.692Z,0
2018-01-15T06:28:11.113Z,0
2018-01-15T06:29:12.609Z,0
2018-01-15T06:30:14.006Z,0
2018-01-15T06:31:15.531Z,0
2018-01-15T06:32:16.939Z,0
2018-01-15T06:33:18.347Z,0
2018-01-15T06:34:19.992Z,0
2018-01-15T06:35:21.795Z,0
2018-01-15T06:36:23.211Z,0
2018-01-15T06:37:24.618Z,0
2018-01-15T06:38:26.385Z,0
2018-01-15T06:39:28.018Z,0
2018-01-15T06:40:29.662Z,0
2018-01-15T06:41:31.084Z,0
2018-01-15T06:42:32.486Z,0
2018-01-15T06:43:33.921Z,0
2018-01-15T06:44:35.332Z,0
2018-01-15T06:45:37.544Z,0
2018-01-15T06:46:39.034Z,0
2018-01-15T06:47:40.447Z,0
2018-01-15T06:48:42.707Z,0
2018-01-15T06:49:44.145Z,0
2018-01-15T06:50:45.553Z,0
2018-01-15T06:51:46.971Z,0
2018-01-15T06:52:48.382Z,0
2018-01-15T06:53:49.796Z,0
2018-01-15T06:54:51.251Z,0
2018-01-15T06:55:52.670Z,0
2018-01-15T06:56:54.078Z,0
2018-01-15T06:57:55.493Z,0
2018-01-15T06:58:56.906Z,0
2018-01-15T06:59:58.547Z,0
2018-01-15T07:00:59.945Z,0
2018-01-15T07:02:01.378Z,0
2018-01-15T07:03:02.824Z,0
2018-01-15T07:04:04.238Z,0
2018-01-15T07:05:05.731Z,0
2018-01-15T07:06:07.280Z,0
2018-01-15T07:07:08.674Z,0
2018-01-15T07:08:10.073Z,0
2018-01-15T07:09:11.488Z,0
2018-01-15T07:10:12.978Z,0
2018-01-15T07:11:14.392Z,0
2018-01-15T07:12:15.808Z,0
2018-01-15T07:13:17.215Z,0
2018-01-15T07:14:18.633Z,0
2018-01-15T07:15:20.038Z,0
2018-01-15T07:16:21.447Z,0
2018-01-15T07:17:22.862Z,0
2018-01-15T07:18:24.280Z,0
2018-01-15T07:19:25.697Z,0
2018-01-15T07:20:27.102Z,0
2018-01-15T07:21:28.515Z,0
2018-01-15T07:22:29.931Z,0
2018-01-15T07:23:31.343Z,0
2018-01-15T07:24:32.791Z,0
2018-01-15T07:25:34.259Z,0
2018-01-15T07:26:35.680Z,0
2018-01-15T07:27:37.089Z,0
2018-01-15T07:28:38.506Z,0
2018-01-15T07:29:39.914Z,0
2018-01-15T07:30:41.331Z,0
2018-01-15T07:31:42.751Z,0
2018-01-15T07:32:44.158Z,0
2018-01-15T07:33:45.568Z,0
2018-01-15T07:34:46.978Z,0
2018-01-15T07:35:48.397Z,0
2018-01-15T07:36:49.812Z,0
2018-01-15T07:37:51.222Z,0
2018-01-15T07:38:52.640Z,0
2018-01-15T07:39:54.055Z,0
2018-01-15T07:40:55.580Z,0
2018-01-15T07:41:56.981Z,0
2018-01-15T07:42:58.395Z,0
2018-01-15T07:43:59.821Z,0
2018-01-15T07:45:01.273Z,5
2018-01-15T07:46:02.739Z,5
2018-01-15T07:47:04.443Z,5
2018-01-15T07:48:05.837Z,5
2018-01-15T07:49:07.255Z,5
2018-01-15T07:50:09.617Z,5
2018-01-15T07:51:11.025Z,5
2018-01-15T07:52:12.440Z,5
2018-01-15T07:53:13.870Z,5
2018-01-15T07:54:15.387Z,5
2018-01-15T07:55:16.800Z,5
2018-01-15T07:56:18.213Z,5
2018-01-15T07:57:19.588Z,5
2018-01-15T07:58:21.003Z,5
2018-01-15T07:59:22.413Z,5
2018-01-15T08:00:23.831Z,5
2018-01-15T08:01:25.248Z,10
2018-01-15T08:02:26.744Z,10
2018-01-15T08:03:28.166Z,10
2018-01-15T08:04:29.588Z,10
2018-01-15T08:05:30.997Z,10
2018-01-15T08:06:32.409Z,10
2018-01-15T08:07:33.821Z,10
2018-01-15T08:08:35.237Z,10
2018-01-15T08:09:36.645Z,10
2018-01-15T08:10:38.069Z,10
2018-01-15T08:11:39.490Z,10
2018-01-15T08:12:40.908Z,10
2018-01-15T08:13:42.316Z,10
2018-01-15T08:14:43.737Z,10
2018-01-15T08:15:45.153Z,10
2018-01-15T08:16:46.565Z,10
2018-01-15T08:17:47.987Z,10
2018-01-15T08:18:49.393Z,10
2018-01-15T08:19:50.811Z,10
2018-01-15T08:20:52.982Z,10
2018-01-15T08:21:54.528Z,10
2018-01-15T08:22:55.940Z,10
2018-01-15T08:23:57.368Z,10
2018-01-15T08:24:58.780Z,10
2018-01-15T08:26:00.271Z,10
2018-01-15T08:27:01.689Z,10
2018-01-15T08:28:03.133Z,10
2018-01-15T08:29:04.521Z,10
2018-01-15T08:30:05.932Z,10
2018-01-15T08:31:07.352Z,10
2018-01-15T08:32:08.779Z,10
2018-01-15T08:33:10.194Z,10
2018-01-15T08:34:11.604Z,10
2018-01-15T08:35:13.032Z,10
2018-01-15T08:36:14.458Z,10
2018-01-15T08:37:15.885Z,10
2018-01-15T08:38:17.308Z,10
2018-01-15T08:39:18.715Z,10
2018-01-15T08:40:20.130Z,10
2018-01-15T08:41:21.549Z,10
2018-01-15T08:42:23.030Z,10
2018-01-15T08:43:24.448Z,10
2018-01-15T08:44:25.869Z,10
2018-01-15T08:45:27.279Z,10
2018-01-15T08:46:28.746Z,10
2018-01-15T08:47:30.161Z,15
2018-01-15T08:48:31.579Z,15
2018-01-15T08:49:32.989Z,15
2018-01-15T08:50:34.402Z,15
2018-01-15T08:51:35.822Z,15
2018-01-15T08:52:37.282Z,15
2018-01-15T08:53:38.708Z,15
2018-01-15T08:54:40.143Z,15
2018-01-15T08:55:41.555Z,15
2018-01-15T08:56:42.971Z,15
2018-01-15T08:57:44.577Z,15
2018-01-15T08:58:45.998Z,15
2018-01-15T08:59:47.425Z,15
2018-01-15T09:00:48.862Z,15
2018-01-15T09:01:50.245Z,15
2018-01-15T09:02:51.661Z,15
2018-01-15T09:03:53.073Z,15
2018-01-15T09:04:54.495Z,10
2018-01-15T09:05:55.919Z,10
2018-01-15T09:06:57.343Z,10
2018-01-15T09:07:58.761Z,10
2018-01-15T09:09:00.178Z,10
2018-01-15T09:10:01.601Z,10
2018-01-15T09:11:03.028Z,15
2018-01-15T09:12:04.449Z,15
2018-01-15T09:13:05.863Z,15
2018-01-15T09:14:08.081Z,15
2018-01-15T09:15:09.503Z,15
2018-01-15T09:16:10.910Z,15
2018-01-15T09:17:12.350Z,15
2018-01-15T09:18:13.764Z,15
2018-01-15T09:19:15.182Z,15
2018-01-15T09:20:16.601Z,15
2018-01-15T09:21:18.019Z,20
2018-01-15T09:22:19.435Z,20
2018-01-15T09:23:20.856Z,20
2018-01-15T09:24:22.272Z,20
2018-01-15T09:25:23.690Z,20
2018-01-15T09:26:25.112Z,20
2018-01-15T09:27:26.530Z,25
2018-01-15T09:28:27.941Z,25
2018-01-15T09:29:29.356Z,25
2018-01-15T09:30:30.772Z,25
2018-01-15T09:31:32.191Z,25
2018-01-15T09:32:33.607Z,25
2018-01-15T09:33:35.033Z,25
2018-01-15T09:34:36.457Z,25
2018-01-15T09:35:37.879Z,25
2018-01-15T09:36:39.291Z,25
2018-01-15T09:37:40.705Z,25
2018-01-15T09:38:42.123Z,25
2018-01-15T09:39:43.505Z,25
2018-01-15T09:40:44.926Z,25
2018-01-15T09:41:46.346Z,25
2018-01-15T09:42:47.766Z,25
2018-01-15T09:43:49.185Z,25
2018-01-15T09:44:50.597Z,25
2018-01-15T09:45:52.014Z,25
2018-01-15T09:46:53.446Z,25
2018-01-15T09:47:54.861Z,25
2018-01-15T09:48:56.277Z,25
2018-01-15T09:49:57.709Z,25
2018-01-15T09:50:59.120Z,30
2018-01-15T09:52:00.538Z,30
2018-01-15T09:53:01.953Z,30
2018-01-15T09:54:03.376Z,30
2018-01-15T09:55:04.808Z,30
2018-01-15T09:56:06.227Z,30
2018-01-15T09:57:07.650Z,30
2018-01-15T09:58:09.072Z,35
2018-01-15T09:59:10.513Z,35
2018-01-15T10:00:11.923Z,35
2018-01-15T10:01:13.341Z,35
2018-01-15T10:02:14.760Z,35
2018-01-15T10:03:16.184Z,40
2018-01-15T10:04:17.595Z,40
2018-01-15T10:05:19.024Z,40
2018-01-15T10:06:20.433Z,40
2018-01-15T10:07:21.851Z,40
2018-01-15T10:08:23.271Z,40
2018-01-15T10:09:24.689Z,35
2018-01-15T10:10:26.109Z,35
2018-01-15T10:11:27.522Z,40
2018-01-15T10:12:28.943Z,40
2018-01-15T10:13:30.353Z,40
2018-01-15T10:14:31.782Z,35
2018-01-15T10:15:33.204Z,35
2018-01-15T10:16:34.621Z,35
2018-01-15T10:17:36.044Z,35
2018-01-15T10:18:37.460Z,35
2018-01-15T10:19:38.886Z,35
2018-01-15T10:20:40.297Z,35
2018-01-15T10:21:41.717Z,40
2018-01-15T10:22:43.135Z,35
2018-01-15T10:23:44.561Z,35
2018-01-15T10:24:45.982Z,35
2018-01-15T10:25:47.403Z,35
2018-01-15T10:26:48.822Z,35
2018-01-15T10:27:50.242Z,35
2018-01-15T10:28:51.654Z,35
2018-01-15T10:29:53.080Z,35
2018-01-15T10:30:54.499Z,35
2018-01-15T10:31:55.918Z,35
2018-01-15T10:32:57.876Z,35
2018-01-15T10:33:59.296Z,35
2018-01-15T10:35:00.711Z,35
2018-01-15T10:36:02.133Z,35
2018-01-15T10:37:03.549Z,35
2018-01-15T10:38:04.968Z,35
2018-01-15T10:39:06.382Z,30
2018-01-15T10:40:07.801Z,30
2018-01-15T10:41:09.219Z,30
2018-01-15T10:42:10.642Z,30
2018-01-15T10:43:12.063Z,30
2018-01-15T10:44:13.488Z,35
2018-01-15T10:45:14.913Z,35
2018-01-15T10:46:16.339Z,40
2018-01-15T10:47:17.750Z,40
2018-01-15T10:48:19.171Z,45
2018-01-15T10:49:20.592Z,40
2018-01-15T10:50:22.009Z,40
2018-01-15T10:51:23.428Z,40
2018-01-15T10:52:24.850Z,40
2018-01-15T10:53:26.261Z,40
2018-01-15T10:54:27.677Z,40
2018-01-15T10:55:29.111Z,40
2018-01-15T10:56:30.525Z,40
2018-01-15T10:57:31.941Z,40
2018-01-15T10:58:33.350Z,40
2018-01-15T10:59:34.769Z,40
2018-01-15T11:00:36.196Z,40
2018-01-15T11:01:37.613Z,40
2018-01-15T11:02:39.033Z,40
2018-01-15T11:03:40.450Z,40
2018-01-15T11:04:41.871Z,40
2018-01-15T11:05:43.295Z,40
2018-01-15T11:06:44.721Z,45
2018-01-15T11:07:46.147Z,45
2018-01-15T11:08:47.565Z,45
2018-01-15T11:09:48.977Z,40
2018-01-15T11:10:50.403Z,40
2018-01-15T11:11:51.852Z,40
2018-01-15T11:12:53.243Z,40
2018-01-15T11:13:54.678Z,40
2018-01-15T11:14:56.106Z,40
2018-01-15T11:15:57.672Z,45
2018-01-15T11:16:59.088Z,45
2018-01-15T11:18:00.505Z,45
2018-01-15T11:19:01.921Z,45
2018-01-15T11:20:03.347Z,50
2018-01-15T11:21:04.767Z,50
2018-01-15T11:22:06.191Z,50
2018-01-15T11:23:07.622Z,55
2018-01-15T11:24:09.048Z,55
2018-01-15T11:25:10.463Z,55
2018-01-15T11:26:11.881Z,50
2018-01-15T11:27:13.308Z,50
2018-01-15T11:28:14.735Z,45
2018-01-15T11:29:16.159Z,40
2018-01-15T11:30:17.582Z,40
2018-01-15T11:31:19.033Z,35
2018-01-15T11:32:20.453Z,35
2018-01-15T11:33:21.883Z,35
2018-01-15T11:34:23.294Z,35
2018-01-15T11:35:24.709Z,40
2018-01-15T11:36:26.128Z,40
2018-01-15T11:37:27.553Z,40
2018-01-15T11:38:28.974Z,35
2018-01-15T11:39:30.388Z,35
2018-01-15T11:40:31.833Z,35
2018-01-15T11:41:33.247Z,35
2018-01-15T11:42:34.676Z,40
2018-01-15T11:43:36.093Z,40
2018-01-15T11:44:37.512Z,40
2018-01-15T11:45:38.928Z,45
2018-01-15T11:46:40.352Z,45
2018-01-15T11:47:41.776Z,45
2018-01-15T11:48:43.187Z,45
2018-01-15T11:49:44.614Z,45
2018-01-15T11:50:46.047Z,45
2018-01-15T11:51:47.465Z,40
2018-01-15T11:52:48.889Z,40
2018-01-15T11:53:50.304Z,35
2018-01-15T11:54:51.732Z,30
2018-01-15T11:55:53.145Z,30
2018-01-15T11:56:54.572Z,30
2018-01-15T11:57:55.993Z,30
2018-01-15T11:58:57.407Z,35
2018-01-15T11:59:58.826Z,35
2018-01-15T12:01:00.250Z,40
2018-01-15T12:02:01.675Z,40
2018-01-15T12:03:03.096Z,40
2018-01-15T12:04:04.514Z,40
2018-01-15T12:05:05.931Z,35
2018-01-15T12:06:07.351Z,30
2018-01-15T12:07:08.791Z,30
2018-01-15T12:08:10.214Z,30
2018-01-15T12:09:11.631Z,30
2018-01-15T12:10:13.066Z,30
2018-01-15T12:11:14.477Z,25
2018-01-15T12:12:15.910Z,20
2018-01-15T12:13:17.329Z,20
2018-01-15T12:14:18.750Z,25
2018-01-15T12:15:20.168Z,30
2018-01-15T12:16:21.592Z,35
2018-01-15T12:17:23.026Z,35
2018-01-15T12:18:24.431Z,35
2018-01-15T12:19:25.855Z,40
2018-01-15T12:20:27.281Z,40
2018-01-15T12:21:28.695Z,45
2018-01-15T12:22:30.120Z,45
2018-01-15T12:23:31.543Z,35
2018-01-15T12:24:33.040Z,40
2018-01-15T12:25:34.473Z,40
2018-01-15T12:26:35.883Z,40
2018-01-15T12:27:37.300Z,40
2018-01-15T12:28:38.727Z,45
2018-01-15T12:29:40.145Z,40
2018-01-15T12:30:41.561Z,35
2018-01-15T12:31:42.979Z,30
2018-01-15T12:32:44.403Z,30
2018-01-15T12:33:45.818Z,35
2018-01-15T12:34:47.262Z,45
2018-01-15T12:35:48.679Z,45
2018-01-15T12:36:50.097Z,40
2018-01-15T12:37:51.512Z,35
2018-01-15T12:38:53.078Z,30
2018-01-15T12:39:54.497Z,30
2018-01-15T12:40:55.927Z,30
2018-01-15T12:41:57.333Z,25
2018-01-15T12:42:58.750Z,20
2018-01-15T12:44:00.167Z,15
2018-01-15T12:45:01.588Z,15
2018-01-15T12:46:03.012Z,15
2018-01-15T12:47:04.418Z,15
2018-01-15T12:48:05.843Z,20
2018-01-15T12:49:07.273Z,25
2018-01-15T12:50:08.676Z,25
2018-01-15T12:51:10.087Z,25
2018-01-15T12:52:11.558Z,25
2018-01-15T12:53:12.986Z,25
2018-01-15T12:54:14.398Z,25
2018-01-15T12:55:15.820Z,25
2018-01-15T12:56:17.239Z,25
2018-01-15T12:57:18.649Z,25
2018-01-15T12:58:20.072Z,30
2018-01-15T12:59:21.493Z,30
2018-01-15T13:00:22.910Z,30
2018-01-15T13:01:24.332Z,45
2018-01-15T13:02:25.763Z,40
2018-01-15T13:03:27.176Z,40
2018-01-15T13:04:28.604Z,40
2018-01-15T13:05:30.026Z,35
2018-01-15T13:06:31.450Z,30
2018-01-15T13:07:32.872Z,30
2018-01-15T13:08:34.288Z,30
2018-01-15T13:09:35.699Z,30
2018-01-15T13:10:37.139Z,30
2018-01-15T13:11:38.613Z,30
2018-01-15T13:12:40.037Z,30
2018-01-15T13:13:41.453Z,25
2018-01-15T13:14:42.882Z,25
2018-01-15T13:15:44.298Z,25
2018-01-15T13:16:45.706Z,25
2018-01-15T13:17:47.138Z,25
2018-01-15T13:18:48.550Z,30
2018-01-15T13:19:49.979Z,30
2018-01-15T13:20:51.398Z,30
2018-01-15T13:21:52.855Z,25
2018-01-15T13:22:54.279Z,25
2018-01-15T13:23:55.694Z,25
2018-01-15T13:24:57.682Z,25
2018-01-15T13:25:59.092Z,25
2018-01-15T13:27:00.462Z,25
2018-01-15T13:28:01.885Z,5
2018-01-15T13:28:42.209Z,40
2018-01-15T13:29:43.672Z,40
2018-01-15T13:30:45.104Z,20
2018-01-15T13:31:46.508Z,0
2018-01-15T13:32:47.924Z,0
2018-01-15T13:33:49.345Z,5
2018-01-15T13:34:50.773Z,5
2018-01-15T13:35:52.197Z,10
2018-01-15T13:36:53.638Z,10
2018-01-15T13:37:55.069Z,10
2018-01-15T13:38:56.481Z,10
2018-01-15T13:39:57.902Z,5
2018-01-15T13:40:59.315Z,5
2018-01-15T13:42:00.731Z,5
2018-01-15T13:43:02.149Z,5
2018-01-15T13:44:03.568Z,5
2018-01-15T13:45:04.983Z,5
2018-01-15T13:46:06.401Z,5
2018-01-15T13:47:07.821Z,5
2018-01-15T13:48:09.277Z,5
2018-01-15T13:49:10.662Z,0
2018-01-15T13:50:12.079Z,0
2018-01-15T13:51:13.500Z,0
2018-01-15T13:52:14.918Z,0
2018-01-15T13:53:16.336Z,0
2018-01-15T13:54:17.774Z,0
2018-01-15T13:55:19.188Z,0
2018-01-15T13:56:20.607Z,0
2018-01-15T13:57:22.031Z,0
2018-01-15T13:58:23.450Z,0
2018-01-15T13:59:24.860Z,0
2018-01-15T14:00:26.274Z,0
2018-01-15T14:01:27.682Z,0
2018-01-15T14:02:29.110Z,0
2018-01-15T14:03:30.524Z,0
2018-01-15T14:04:31.941Z,0
2018-01-15T14:05:33.360Z,0
2018-01-15T14:06:34.779Z,0
2018-01-15T14:07:36.193Z,0
2018-01-15T14:08:37.605Z,0
2018-01-15T14:09:39.027Z,0
2018-01-15T14:10:41.772Z,0
2018-01-15T14:11:43.190Z,0
2018-01-15T14:12:44.614Z,0
2018-01-15T14:13:46.044Z,0
2018-01-15T14:14:47.460Z,0
2018-01-15T14:15:48.877Z,0
2018-01-15T14:16:50.289Z,0
2018-01-15T14:17:51.709Z,0
2018-01-15T14:18:53.126Z,0
2018-01-15T14:19:54.537Z,0
2018-01-15T14:20:55.964Z,0
2018-01-15T14:21:57.371Z,0
2018-01-15T14:22:58.789Z,0
2018-01-15T14:24:00.207Z,0
2018-01-15T14:25:01.618Z,0
2018-01-15T14:26:03.039Z,0
2018-01-15T14:27:04.455Z,0
2018-01-15T14:28:05.874Z,0
2018-01-15T14:29:07.286Z,0
2018-01-15T14:30:08.707Z,0
2018-01-15T14:31:10.161Z,0
2018-01-15T14:32:11.553Z,5
2018-01-15T14:33:12.970Z,5
2018-01-15T14:34:14.388Z,5
2018-01-15T14:35:15.806Z,5
2018-01-15T14:36:17.243Z,30
2018-01-15T14:37:18.649Z,25
2018-01-15T14:38:20.063Z,25
2018-01-15T14:39:21.474Z,20
2018-01-15T14:40:22.968Z,20
2018-01-15T14:41:24.382Z,20
2018-01-15T14:42:25.806Z,20
2018-01-15T14:43:27.223Z,15
2018-01-15T14:44:28.656Z,20
2018-01-15T14:45:30.072Z,20
2018-01-15T14:46:31.557Z,20
2018-01-15T14:47:32.969Z,20
2018-01-15T14:48:34.396Z,20
2018-01-15T14:49:35.809Z,15
2018-01-15T14:50:37.240Z,15
2018-01-15T14:51:38.663Z,15
2018-01-15T14:52:40.088Z,15
2018-01-15T14:53:41.508Z,15
2018-01-15T14:54:42.921Z,15